sensor_id;sensor_type;location;lat;lon;timestamp;P1;durP1;ratioP1;P2;durP2;ratioP2
11255;SDS011;5685;52.384;13.420;2022-09-09T00:01:59;12.67;;;11.97;;
11255;SDS011;5685;52.384;13.420;2022-09-09T00:05:09;12.53;;;11.83;;
11255;SDS011;5685;52.384;13.420;2022-09-09T00:08:22;12.43;;;11.73;;
11255;SDS011;5685;52.384;13.420;2022-09-09T00:11:36;12.37;;;11.67;;
11255;SDS011;5685;52.384;13.420;2022-09-09T00:14:47;12.33;;;11.53;;
11255;SDS011;5685;52.384;13.420;2022-09-09T00:17:57;12.07;;;11.37;;
11255;SDS011;5685;52.384;13.420;2022-09-09T00:21:11;12.03;;;11.33;;
11255;SDS011;5685;52.384;13.420;2022-09-09T00:24:23;11.67;;;10.97;;
11255;SDS011;5685;52.384;13.420;2022-09-09T00:27:29;12.43;;;11.63;;
11255;SDS011;5685;52.384;13.420;2022-09-09T00:30:35;11.87;;;11.17;;
11255;SDS011;5685;52.384;13.420;2022-09-09T00:33:40;11.60;;;10.90;;
11255;SDS011;5685;52.384;13.420;2022-09-09T00:36:43;12.27;;;11.57;;
11255;SDS011;5685;52.384;13.420;2022-09-09T00:39:46;11.67;;;11.07;;
11255;SDS011;5685;52.384;13.420;2022-09-09T00:42:54;12.00;;;11.30;;
11255;SDS011;5685;52.384;13.420;2022-09-09T00:50:00;12.00;;;11.10;;
11255;SDS011;5685;52.384;13.420;2022-09-09T00:53:11;12.17;;;11.30;;
11255;SDS011;5685;52.384;13.420;2022-09-09T00:56:26;12.03;;;11.20;;
11255;SDS011;5685;52.384;13.420;2022-09-09T00:59:45;12.17;;;11.27;;
11255;SDS011;5685;52.384;13.420;2022-09-09T01:02:56;12.80;;;12.00;;
11255;SDS011;5685;52.384;13.420;2022-09-09T01:06:15;12.13;;;11.43;;
11255;SDS011;5685;52.384;13.420;2022-09-09T01:09:22;11.67;;;10.97;;
11255;SDS011;5685;52.384;13.420;2022-09-09T01:12:35;11.93;;;11.20;;
11255;SDS011;5685;52.384;13.420;2022-09-09T01:15:43;12.00;;;11.40;;
11255;SDS011;5685;52.384;13.420;2022-09-09T01:18:48;12.40;;;11.50;;
11255;SDS011;5685;52.384;13.420;2022-09-09T01:21:56;12.77;;;11.97;;
11255;SDS011;5685;52.384;13.420;2022-09-09T01:25:09;12.73;;;11.80;;
11255;SDS011;5685;52.384;13.420;2022-09-09T01:28:27;12.13;;;11.43;;
11255;SDS011;5685;52.384;13.420;2022-09-09T01:31:32;11.97;;;11.20;;
11255;SDS011;5685;52.384;13.420;2022-09-09T01:34:39;12.50;;;11.80;;
11255;SDS011;5685;52.384;13.420;2022-09-09T01:37:42;12.13;;;11.43;;
11255;SDS011;5685;52.384;13.420;2022-09-09T01:40:44;12.17;;;11.47;;
11255;SDS011;5685;52.384;13.420;2022-09-09T01:43:48;12.70;;;11.80;;
11255;SDS011;5685;52.384;13.420;2022-09-09T01:46:51;12.27;;;11.57;;
11255;SDS011;5685;52.384;13.420;2022-09-09T01:49:54;12.70;;;11.67;;
11255;SDS011;5685;52.384;13.420;2022-09-09T01:52:56;12.43;;;11.67;;
11255;SDS011;5685;52.384;13.420;2022-09-09T01:56:07;12.30;;;11.50;;
11255;SDS011;5685;52.384;13.420;2022-09-09T01:59:34;12.23;;;11.53;;
11255;SDS011;5685;52.384;13.420;2022-09-09T02:02:52;11.87;;;11.27;;
11255;SDS011;5685;52.384;13.420;2022-09-09T02:06:04;12.70;;;11.80;;
11255;SDS011;5685;52.384;13.420;2022-09-09T02:09:15;12.63;;;11.83;;
11255;SDS011;5685;52.384;13.420;2022-09-09T02:12:24;12.10;;;11.30;;
11255;SDS011;5685;52.384;13.420;2022-09-09T02:15:30;12.30;;;11.47;;
11255;SDS011;5685;52.384;13.420;2022-09-09T02:18:37;12.17;;;11.47;;
11255;SDS011;5685;52.384;13.420;2022-09-09T02:21:46;11.93;;;11.23;;
11255;SDS011;5685;52.384;13.420;2022-09-09T02:24:49;12.40;;;11.50;;
11255;SDS011;5685;52.384;13.420;2022-09-09T02:27:54;12.17;;;11.47;;
11255;SDS011;5685;52.384;13.420;2022-09-09T02:31:00;12.13;;;11.43;;
11255;SDS011;5685;52.384;13.420;2022-09-09T02:34:03;12.10;;;11.17;;
11255;SDS011;5685;52.384;13.420;2022-09-09T02:37:10;11.93;;;11.30;;
11255;SDS011;5685;52.384;13.420;2022-09-09T02:40:14;10.70;;;10.10;;
11255;SDS011;5685;52.384;13.420;2022-09-09T02:43:17;11.03;;;10.53;;
11255;SDS011;5685;52.384;13.420;2022-09-09T02:46:24;10.70;;;10.20;;
11255;SDS011;5685;52.384;13.420;2022-09-09T02:49:41;10.57;;;10.07;;
11255;SDS011;5685;52.384;13.420;2022-09-09T02:53:00;10.87;;;10.37;;
11255;SDS011;5685;52.384;13.420;2022-09-09T02:56:12;10.27;;;9.77;;
11255;SDS011;5685;52.384;13.420;2022-09-09T02:59:16;10.73;;;10.23;;
11255;SDS011;5685;52.384;13.420;2022-09-09T03:02:20;10.57;;;10.07;;
11255;SDS011;5685;52.384;13.420;2022-09-09T03:05:23;10.20;;;9.70;;
11255;SDS011;5685;52.384;13.420;2022-09-09T03:08:25;10.70;;;10.10;;
11255;SDS011;5685;52.384;13.420;2022-09-09T03:11:28;10.90;;;10.30;;
11255;SDS011;5685;52.384;13.420;2022-09-09T03:14:30;10.43;;;9.93;;
11255;SDS011;5685;52.384;13.420;2022-09-09T03:17:34;11.53;;;10.93;;
11255;SDS011;5685;52.384;13.420;2022-09-09T03:20:36;10.57;;;9.97;;
11255;SDS011;5685;52.384;13.420;2022-09-09T03:23:38;10.40;;;9.90;;
11255;SDS011;5685;52.384;13.420;2022-09-09T03:26:41;9.90;;;9.40;;
11255;SDS011;5685;52.384;13.420;2022-09-09T03:29:44;9.97;;;9.47;;
11255;SDS011;5685;52.384;13.420;2022-09-09T03:32:48;10.43;;;9.93;;
11255;SDS011;5685;52.384;13.420;2022-09-09T03:35:50;10.50;;;9.87;;
11255;SDS011;5685;52.384;13.420;2022-09-09T03:38:53;10.47;;;9.97;;
11255;SDS011;5685;52.384;13.420;2022-09-09T03:41:55;10.10;;;9.60;;
11255;SDS011;5685;52.384;13.420;2022-09-09T03:44:57;10.50;;;10.00;;
11255;SDS011;5685;52.384;13.420;2022-09-09T03:48:02;10.43;;;9.93;;
11255;SDS011;5685;52.384;13.420;2022-09-09T03:51:05;10.70;;;10.13;;
11255;SDS011;5685;52.384;13.420;2022-09-09T03:54:07;10.63;;;10.13;;
11255;SDS011;5685;52.384;13.420;2022-09-09T03:57:10;10.57;;;10.07;;
11255;SDS011;5685;52.384;13.420;2022-09-09T04:00:13;10.50;;;10.00;;
11255;SDS011;5685;52.384;13.420;2022-09-09T04:03:17;10.60;;;10.10;;
11255;SDS011;5685;52.384;13.420;2022-09-09T04:06:20;10.60;;;10.10;;
11255;SDS011;5685;52.384;13.420;2022-09-09T04:09:22;10.70;;;10.20;;
11255;SDS011;5685;52.384;13.420;2022-09-09T04:12:24;9.83;;;9.33;;
11255;SDS011;5685;52.384;13.420;2022-09-09T04:15:27;10.93;;;10.23;;
11255;SDS011;5685;52.384;13.420;2022-09-09T04:18:30;10.53;;;9.63;;
11255;SDS011;5685;52.384;13.420;2022-09-09T04:21:34;9.97;;;9.47;;
11255;SDS011;5685;52.384;13.420;2022-09-09T04:24:36;10.20;;;9.70;;
11255;SDS011;5685;52.384;13.420;2022-09-09T04:27:38;10.40;;;9.80;;
11255;SDS011;5685;52.384;13.420;2022-09-09T04:30:41;10.00;;;9.50;;
11255;SDS011;5685;52.384;13.420;2022-09-09T04:33:45;10.57;;;9.97;;
11255;SDS011;5685;52.384;13.420;2022-09-09T04:36:47;10.47;;;9.97;;
11255;SDS011;5685;52.384;13.420;2022-09-09T04:39:51;10.40;;;9.90;;
11255;SDS011;5685;52.384;13.420;2022-09-09T04:42:54;10.47;;;9.97;;
11255;SDS011;5685;52.384;13.420;2022-09-09T04:45:56;9.93;;;9.43;;
11255;SDS011;5685;52.384;13.420;2022-09-09T04:49:00;10.63;;;10.13;;
11255;SDS011;5685;52.384;13.420;2022-09-09T04:52:02;9.90;;;9.40;;
11255;SDS011;5685;52.384;13.420;2022-09-09T04:55:06;9.93;;;9.43;;
11255;SDS011;5685;52.384;13.420;2022-09-09T04:58:09;9.50;;;9.10;;
11255;SDS011;5685;52.384;13.420;2022-09-09T05:01:12;10.17;;;9.67;;
11255;SDS011;5685;52.384;13.420;2022-09-09T05:04:18;9.83;;;9.33;;
11255;SDS011;5685;52.384;13.420;2022-09-09T05:07:21;10.30;;;9.70;;
11255;SDS011;5685;52.384;13.420;2022-09-09T05:10:23;10.30;;;9.70;;
11255;SDS011;5685;52.384;13.420;2022-09-09T05:13:25;10.47;;;9.97;;
11255;SDS011;5685;52.384;13.420;2022-09-09T05:16:28;10.53;;;10.03;;
11255;SDS011;5685;52.384;13.420;2022-09-09T05:19:31;9.90;;;9.40;;
11255;SDS011;5685;52.384;13.420;2022-09-09T05:22:34;9.97;;;9.47;;
11255;SDS011;5685;52.384;13.420;2022-09-09T05:25:36;9.93;;;9.43;;
11255;SDS011;5685;52.384;13.420;2022-09-09T05:28:38;9.97;;;9.47;;
11255;SDS011;5685;52.384;13.420;2022-09-09T05:31:40;9.60;;;9.20;;
11255;SDS011;5685;52.384;13.420;2022-09-09T05:34:43;10.57;;;10.07;;
11255;SDS011;5685;52.384;13.420;2022-09-09T05:37:46;10.10;;;9.60;;
11255;SDS011;5685;52.384;13.420;2022-09-09T05:40:49;10.93;;;10.43;;
11255;SDS011;5685;52.384;13.420;2022-09-09T05:43:52;10.47;;;9.97;;
11255;SDS011;5685;52.384;13.420;2022-09-09T05:46:54;10.63;;;10.13;;
11255;SDS011;5685;52.384;13.420;2022-09-09T05:49:59;10.57;;;9.97;;
11255;SDS011;5685;52.384;13.420;2022-09-09T05:53:01;10.37;;;9.67;;
11255;SDS011;5685;52.384;13.420;2022-09-09T05:56:04;10.13;;;9.63;;
11255;SDS011;5685;52.384;13.420;2022-09-09T05:59:10;10.60;;;10.10;;
11255;SDS011;5685;52.384;13.420;2022-09-09T06:02:12;10.70;;;10.20;;
11255;SDS011;5685;52.384;13.420;2022-09-09T06:05:16;10.73;;;10.23;;
11255;SDS011;5685;52.384;13.420;2022-09-09T06:08:18;10.80;;;10.30;;
11255;SDS011;5685;52.384;13.420;2022-09-09T06:11:21;10.20;;;9.70;;
11255;SDS011;5685;52.384;13.420;2022-09-09T06:14:24;10.37;;;9.87;;
11255;SDS011;5685;52.384;13.420;2022-09-09T06:17:27;10.60;;;10.10;;
11255;SDS011;5685;52.384;13.420;2022-09-09T06:20:30;10.63;;;10.13;;
11255;SDS011;5685;52.384;13.420;2022-09-09T06:23:33;10.67;;;10.17;;
11255;SDS011;5685;52.384;13.420;2022-09-09T06:26:36;10.00;;;9.50;;
11255;SDS011;5685;52.384;13.420;2022-09-09T06:29:40;10.40;;;9.90;;
11255;SDS011;5685;52.384;13.420;2022-09-09T06:32:42;10.00;;;9.50;;
11255;SDS011;5685;52.384;13.420;2022-09-09T06:35:52;10.77;;;10.27;;
11255;SDS011;5685;52.384;13.420;2022-09-09T06:38:54;10.93;;;10.33;;
11255;SDS011;5685;52.384;13.420;2022-09-09T06:41:57;10.47;;;9.97;;
11255;SDS011;5685;52.384;13.420;2022-09-09T06:44:59;10.43;;;9.93;;
11255;SDS011;5685;52.384;13.420;2022-09-09T06:48:02;10.10;;;9.60;;
11255;SDS011;5685;52.384;13.420;2022-09-09T06:51:06;10.37;;;9.87;;
11255;SDS011;5685;52.384;13.420;2022-09-09T06:54:11;10.13;;;9.63;;
11255;SDS011;5685;52.384;13.420;2022-09-09T06:57:14;10.07;;;9.57;;
11255;SDS011;5685;52.384;13.420;2022-09-09T07:00:16;10.40;;;9.90;;
11255;SDS011;5685;52.384;13.420;2022-09-09T07:03:18;10.60;;;10.10;;
11255;SDS011;5685;52.384;13.420;2022-09-09T07:06:23;11.03;;;10.53;;
11255;SDS011;5685;52.384;13.420;2022-09-09T07:09:27;11.07;;;10.47;;
11255;SDS011;5685;52.384;13.420;2022-09-09T07:12:29;10.30;;;9.80;;
11255;SDS011;5685;52.384;13.420;2022-09-09T07:15:32;10.07;;;9.57;;
11255;SDS011;5685;52.384;13.420;2022-09-09T07:18:34;10.83;;;10.20;;
11255;SDS011;5685;52.384;13.420;2022-09-09T07:21:38;10.90;;;10.23;;
11255;SDS011;5685;52.384;13.420;2022-09-09T07:24:40;10.40;;;9.70;;
11255;SDS011;5685;52.384;13.420;2022-09-09T07:27:45;10.57;;;10.07;;
11255;SDS011;5685;52.384;13.420;2022-09-09T07:30:52;9.97;;;9.40;;
11255;SDS011;5685;52.384;13.420;2022-09-09T07:33:55;10.47;;;9.97;;
11255;SDS011;5685;52.384;13.420;2022-09-09T07:37:01;10.40;;;9.83;;
11255;SDS011;5685;52.384;13.420;2022-09-09T07:40:04;10.33;;;9.83;;
11255;SDS011;5685;52.384;13.420;2022-09-09T07:43:07;10.50;;;10.00;;
11255;SDS011;5685;52.384;13.420;2022-09-09T07:46:10;9.87;;;9.27;;
11255;SDS011;5685;52.384;13.420;2022-09-09T07:49:15;10.23;;;9.73;;
11255;SDS011;5685;52.384;13.420;2022-09-09T07:52:19;10.20;;;9.70;;
11255;SDS011;5685;52.384;13.420;2022-09-09T07:55:21;10.40;;;9.90;;
11255;SDS011;5685;52.384;13.420;2022-09-09T07:58:26;10.07;;;9.50;;
11255;SDS011;5685;52.384;13.420;2022-09-09T08:01:29;10.03;;;9.53;;
11255;SDS011;5685;52.384;13.420;2022-09-09T08:04:33;9.53;;;9.13;;
11255;SDS011;5685;52.384;13.420;2022-09-09T08:07:36;10.37;;;9.87;;
11255;SDS011;5685;52.384;13.420;2022-09-09T08:10:38;10.27;;;9.77;;
11255;SDS011;5685;52.384;13.420;2022-09-09T08:13:41;10.47;;;9.87;;
11255;SDS011;5685;52.384;13.420;2022-09-09T08:16:46;10.50;;;9.90;;
11255;SDS011;5685;52.384;13.420;2022-09-09T08:19:49;9.80;;;9.30;;
11255;SDS011;5685;52.384;13.420;2022-09-09T08:22:54;10.47;;;9.97;;
11255;SDS011;5685;52.384;13.420;2022-09-09T08:26:02;10.67;;;10.10;;
11255;SDS011;5685;52.384;13.420;2022-09-09T08:29:11;10.23;;;9.73;;
11255;SDS011;5685;52.384;13.420;2022-09-09T08:32:14;10.37;;;9.77;;
11255;SDS011;5685;52.384;13.420;2022-09-09T08:35:18;10.30;;;9.80;;
11255;SDS011;5685;52.384;13.420;2022-09-09T08:38:22;10.03;;;9.53;;
11255;SDS011;5685;52.384;13.420;2022-09-09T08:41:29;10.97;;;10.33;;
11255;SDS011;5685;52.384;13.420;2022-09-09T08:44:45;10.73;;;10.13;;
11255;SDS011;5685;52.384;13.420;2022-09-09T08:48:10;11.10;;;10.23;;
11255;SDS011;5685;52.384;13.420;2022-09-09T08:51:38;9.77;;;9.17;;
11255;SDS011;5685;52.384;13.420;2022-09-09T08:54:42;10.30;;;9.80;;
11255;SDS011;5685;52.384;13.420;2022-09-09T08:57:45;10.10;;;9.60;;
11255;SDS011;5685;52.384;13.420;2022-09-09T09:00:51;10.77;;;10.27;;
11255;SDS011;5685;52.384;13.420;2022-09-09T09:04:11;10.27;;;9.77;;
11255;SDS011;5685;52.384;13.420;2022-09-09T09:07:33;10.67;;;10.17;;
11255;SDS011;5685;52.384;13.420;2022-09-09T09:10:51;10.50;;;10.00;;
11255;SDS011;5685;52.384;13.420;2022-09-09T09:14:01;10.63;;;10.03;;
11255;SDS011;5685;52.384;13.420;2022-09-09T09:17:11;10.17;;;9.57;;
11255;SDS011;5685;52.384;13.420;2022-09-09T09:20:16;9.93;;;9.43;;
11255;SDS011;5685;52.384;13.420;2022-09-09T09:23:25;9.80;;;9.30;;
11255;SDS011;5685;52.384;13.420;2022-09-09T09:26:36;9.90;;;9.40;;
11255;SDS011;5685;52.384;13.420;2022-09-09T09:29:39;9.83;;;9.23;;
11255;SDS011;5685;52.384;13.420;2022-09-09T09:32:47;9.77;;;9.27;;
11255;SDS011;5685;52.384;13.420;2022-09-09T09:35:55;10.03;;;9.60;;
11255;SDS011;5685;52.384;13.420;2022-09-09T09:39:01;10.07;;;9.53;;
11255;SDS011;5685;52.384;13.420;2022-09-09T09:42:09;9.90;;;9.50;;
11255;SDS011;5685;52.384;13.420;2022-09-09T09:45:15;10.10;;;9.60;;
11255;SDS011;5685;52.384;13.420;2022-09-09T09:48:28;10.57;;;10.07;;
11255;SDS011;5685;52.384;13.420;2022-09-09T09:51:31;10.73;;;10.23;;
11255;SDS011;5685;52.384;13.420;2022-09-09T09:54:37;10.37;;;9.87;;
11255;SDS011;5685;52.384;13.420;2022-09-09T09:57:43;10.63;;;10.03;;
11255;SDS011;5685;52.384;13.420;2022-09-09T10:00:48;10.50;;;9.80;;
11255;SDS011;5685;52.384;13.420;2022-09-09T10:03:52;9.97;;;9.47;;
11255;SDS011;5685;52.384;13.420;2022-09-09T10:06:58;10.37;;;9.77;;
11255;SDS011;5685;52.384;13.420;2022-09-09T10:10:13;10.37;;;9.87;;
11255;SDS011;5685;52.384;13.420;2022-09-09T10:13:25;10.37;;;9.87;;
11255;SDS011;5685;52.384;13.420;2022-09-09T10:16:37;10.93;;;10.23;;
11255;SDS011;5685;52.384;13.420;2022-09-09T10:19:57;10.97;;;10.37;;
11255;SDS011;5685;52.384;13.420;2022-09-09T10:23:23;10.93;;;10.33;;
11255;SDS011;5685;52.384;13.420;2022-09-09T10:26:45;11.00;;;10.27;;
11255;SDS011;5685;52.384;13.420;2022-09-09T10:29:58;11.23;;;10.40;;
11255;SDS011;5685;52.384;13.420;2022-09-09T10:33:09;11.47;;;10.73;;
11255;SDS011;5685;52.384;13.420;2022-09-09T10:36:16;10.57;;;9.90;;
11255;SDS011;5685;52.384;13.420;2022-09-09T10:39:26;12.13;;;10.20;;
11255;SDS011;5685;52.384;13.420;2022-09-09T10:42:37;10.90;;;10.20;;
11255;SDS011;5685;52.384;13.420;2022-09-09T10:45:44;10.07;;;9.47;;
11255;SDS011;5685;52.384;13.420;2022-09-09T10:49:00;10.60;;;10.00;;
11255;SDS011;5685;52.384;13.420;2022-09-09T10:52:15;10.30;;;9.70;;
11255;SDS011;5685;52.384;13.420;2022-09-09T10:55:24;11.27;;;10.10;;
11255;SDS011;5685;52.384;13.420;2022-09-09T10:58:35;10.63;;;10.00;;
11255;SDS011;5685;52.384;13.420;2022-09-09T11:01:44;10.60;;;10.00;;
11255;SDS011;5685;52.384;13.420;2022-09-09T11:04:53;10.80;;;10.13;;
11255;SDS011;5685;52.384;13.420;2022-09-09T11:08:01;10.47;;;9.87;;
11255;SDS011;5685;52.384;13.420;2022-09-09T11:11:09;11.33;;;10.53;;
11255;SDS011;5685;52.384;13.420;2022-09-09T11:14:19;11.00;;;10.40;;
11255;SDS011;5685;52.384;13.420;2022-09-09T11:17:31;11.03;;;10.30;;
11255;SDS011;5685;52.384;13.420;2022-09-09T11:20:40;11.00;;;10.20;;
11255;SDS011;5685;52.384;13.420;2022-09-09T11:23:45;11.10;;;10.50;;
11255;SDS011;5685;52.384;13.420;2022-09-09T11:26:55;11.40;;;10.40;;
11255;SDS011;5685;52.384;13.420;2022-09-09T11:33:46;10.90;;;10.20;;
11255;SDS011;5685;52.384;13.420;2022-09-09T11:37:17;11.30;;;10.60;;
11255;SDS011;5685;52.384;13.420;2022-09-09T11:40:53;10.60;;;10.00;;
11255;SDS011;5685;52.384;13.420;2022-09-09T11:43:59;11.00;;;10.30;;
11255;SDS011;5685;52.384;13.420;2022-09-09T11:47:19;10.67;;;10.07;;
11255;SDS011;5685;52.384;13.420;2022-09-09T11:50:34;10.97;;;10.40;;
11255;SDS011;5685;52.384;13.420;2022-09-09T11:53:50;11.47;;;10.70;;
11255;SDS011;5685;52.384;13.420;2022-09-09T11:56:53;11.07;;;10.47;;
11255;SDS011;5685;52.384;13.420;2022-09-09T11:59:56;11.40;;;10.50;;
11255;SDS011;5685;52.384;13.420;2022-09-09T12:02:59;11.30;;;10.60;;
11255;SDS011;5685;52.384;13.420;2022-09-09T12:06:09;11.07;;;10.27;;
11255;SDS011;5685;52.384;13.420;2022-09-09T12:09:18;10.73;;;10.10;;
11255;SDS011;5685;52.384;13.420;2022-09-09T12:12:30;11.23;;;10.53;;
11255;SDS011;5685;52.384;13.420;2022-09-09T12:15:34;11.07;;;10.43;;
11255;SDS011;5685;52.384;13.420;2022-09-09T12:18:48;11.37;;;10.67;;
11255;SDS011;5685;52.384;13.420;2022-09-09T12:21:54;11.20;;;10.40;;
11255;SDS011;5685;52.384;13.420;2022-09-09T12:25:05;11.40;;;10.60;;
11255;SDS011;5685;52.384;13.420;2022-09-09T12:28:22;10.73;;;10.07;;
11255;SDS011;5685;52.384;13.420;2022-09-09T12:31:31;10.93;;;10.27;;
11255;SDS011;5685;52.384;13.420;2022-09-09T12:34:40;11.37;;;10.57;;
11255;SDS011;5685;52.384;13.420;2022-09-09T12:37:46;10.77;;;10.27;;
11255;SDS011;5685;52.384;13.420;2022-09-09T12:40:54;11.30;;;10.60;;
11255;SDS011;5685;52.384;13.420;2022-09-09T12:44:03;10.90;;;10.20;;
11255;SDS011;5685;52.384;13.420;2022-09-09T12:47:09;11.03;;;10.43;;
11255;SDS011;5685;52.384;13.420;2022-09-09T12:50:17;11.07;;;10.47;;
11255;SDS011;5685;52.384;13.420;2022-09-09T12:53:24;11.10;;;10.33;;
11255;SDS011;5685;52.384;13.420;2022-09-09T12:56:31;10.90;;;10.30;;
11255;SDS011;5685;52.384;13.420;2022-09-09T12:59:35;10.67;;;10.07;;
11255;SDS011;5685;52.384;13.420;2022-09-09T13:02:47;11.43;;;10.63;;
11255;SDS011;5685;52.384;13.420;2022-09-09T13:05:52;11.03;;;10.33;;
11255;SDS011;5685;52.384;13.420;2022-09-09T13:09:02;11.00;;;10.50;;
11255;SDS011;5685;52.384;13.420;2022-09-09T13:12:05;11.07;;;10.40;;
11255;SDS011;5685;52.384;13.420;2022-09-09T13:15:18;11.40;;;10.80;;
11255;SDS011;5685;52.384;13.420;2022-09-09T13:18:23;11.23;;;10.43;;
11255;SDS011;5685;52.384;13.420;2022-09-09T13:21:32;10.87;;;10.17;;
11255;SDS011;5685;52.384;13.420;2022-09-09T13:24:38;11.00;;;10.20;;
11255;SDS011;5685;52.384;13.420;2022-09-09T13:27:50;11.20;;;10.17;;
11255;SDS011;5685;52.384;13.420;2022-09-09T13:31:03;11.10;;;10.40;;
11255;SDS011;5685;52.384;13.420;2022-09-09T13:34:10;11.07;;;10.30;;
11255;SDS011;5685;52.384;13.420;2022-09-09T13:37:19;10.87;;;10.20;;
11255;SDS011;5685;52.384;13.420;2022-09-09T13:40:29;10.77;;;10.17;;
11255;SDS011;5685;52.384;13.420;2022-09-09T13:43:31;11.30;;;10.60;;
11255;SDS011;5685;52.384;13.420;2022-09-09T13:46:38;10.87;;;10.30;;
11255;SDS011;5685;52.384;13.420;2022-09-09T13:49:42;11.23;;;10.63;;
11255;SDS011;5685;52.384;13.420;2022-09-09T13:52:45;11.20;;;10.50;;
11255;SDS011;5685;52.384;13.420;2022-09-09T13:55:51;10.43;;;9.87;;
11255;SDS011;5685;52.384;13.420;2022-09-09T13:58:54;11.30;;;10.70;;
11255;SDS011;5685;52.384;13.420;2022-09-09T14:01:57;11.40;;;10.70;;
11255;SDS011;5685;52.384;13.420;2022-09-09T14:04:59;11.63;;;10.93;;
11255;SDS011;5685;52.384;13.420;2022-09-09T14:08:02;11.73;;;10.87;;
11255;SDS011;5685;52.384;13.420;2022-09-09T14:11:07;10.90;;;10.30;;
11255;SDS011;5685;52.384;13.420;2022-09-09T14:14:14;11.40;;;10.70;;
11255;SDS011;5685;52.384;13.420;2022-09-09T14:17:16;10.30;;;9.80;;
11255;SDS011;5685;52.384;13.420;2022-09-09T14:20:18;11.43;;;10.73;;
11255;SDS011;5685;52.384;13.420;2022-09-09T14:23:20;10.50;;;10.00;;
11255;SDS011;5685;52.384;13.420;2022-09-09T14:26:25;10.03;;;9.53;;
11255;SDS011;5685;52.384;13.420;2022-09-09T14:29:28;10.60;;;9.97;;
11255;SDS011;5685;52.384;13.420;2022-09-09T14:32:31;10.67;;;10.03;;
11255;SDS011;5685;52.384;13.420;2022-09-09T14:35:33;10.70;;;10.10;;
11255;SDS011;5685;52.384;13.420;2022-09-09T14:38:36;10.97;;;10.47;;
11255;SDS011;5685;52.384;13.420;2022-09-09T14:41:41;11.43;;;10.83;;
11255;SDS011;5685;52.384;13.420;2022-09-09T14:44:43;11.23;;;10.63;;
11255;SDS011;5685;52.384;13.420;2022-09-09T14:47:45;11.80;;;10.90;;
11255;SDS011;5685;52.384;13.420;2022-09-09T14:50:48;10.80;;;10.23;;
11255;SDS011;5685;52.384;13.420;2022-09-09T14:53:51;11.33;;;10.63;;
11255;SDS011;5685;52.384;13.420;2022-09-09T14:56:55;11.53;;;10.93;;
11255;SDS011;5685;52.384;13.420;2022-09-09T14:59:58;10.83;;;10.23;;
11255;SDS011;5685;52.384;13.420;2022-09-09T15:03:00;11.10;;;10.50;;
11255;SDS011;5685;52.384;13.420;2022-09-09T15:06:05;11.20;;;10.40;;
11255;SDS011;5685;52.384;13.420;2022-09-09T15:09:09;11.20;;;10.40;;
11255;SDS011;5685;52.384;13.420;2022-09-09T15:12:13;11.43;;;10.67;;
11255;SDS011;5685;52.384;13.420;2022-09-09T15:15:18;10.70;;;10.20;;
11255;SDS011;5685;52.384;13.420;2022-09-09T15:18:21;10.73;;;10.13;;
11255;SDS011;5685;52.384;13.420;2022-09-09T15:21:23;10.83;;;10.23;;
11255;SDS011;5685;52.384;13.420;2022-09-09T15:24:28;11.07;;;10.47;;
11255;SDS011;5685;52.384;13.420;2022-09-09T15:27:31;11.07;;;10.47;;
11255;SDS011;5685;52.384;13.420;2022-09-09T15:30:34;11.30;;;10.80;;
11255;SDS011;5685;52.384;13.420;2022-09-09T15:33:36;10.73;;;10.13;;
11255;SDS011;5685;52.384;13.420;2022-09-09T15:36:40;11.13;;;10.53;;
11255;SDS011;5685;52.384;13.420;2022-09-09T15:39:44;10.17;;;9.67;;
11255;SDS011;5685;52.384;13.420;2022-09-09T15:42:48;11.50;;;10.90;;
11255;SDS011;5685;52.384;13.420;2022-09-09T15:45:51;11.07;;;10.57;;
11255;SDS011;5685;52.384;13.420;2022-09-09T15:49:03;11.20;;;10.60;;
11255;SDS011;5685;52.384;13.420;2022-09-09T15:52:09;10.90;;;10.30;;
11255;SDS011;5685;52.384;13.420;2022-09-09T15:55:12;10.90;;;10.30;;
11255;SDS011;5685;52.384;13.420;2022-09-09T15:58:15;10.80;;;10.30;;
11255;SDS011;5685;52.384;13.420;2022-09-09T16:01:18;11.07;;;10.37;;
11255;SDS011;5685;52.384;13.420;2022-09-09T16:04:21;10.87;;;10.37;;
11255;SDS011;5685;52.384;13.420;2022-09-09T16:07:24;10.73;;;10.13;;
11255;SDS011;5685;52.384;13.420;2022-09-09T16:10:26;10.53;;;10.03;;
11255;SDS011;5685;52.384;13.420;2022-09-09T16:13:30;10.33;;;9.83;;
11255;SDS011;5685;52.384;13.420;2022-09-09T16:16:35;11.20;;;10.40;;
11255;SDS011;5685;52.384;13.420;2022-09-09T16:19:37;11.10;;;10.40;;
11255;SDS011;5685;52.384;13.420;2022-09-09T16:22:39;10.43;;;9.93;;
11255;SDS011;5685;52.384;13.420;2022-09-09T16:25:42;10.93;;;10.33;;
11255;SDS011;5685;52.384;13.420;2022-09-09T16:28:45;11.00;;;10.43;;
11255;SDS011;5685;52.384;13.420;2022-09-09T16:31:48;10.77;;;10.27;;
11255;SDS011;5685;52.384;13.420;2022-09-09T16:34:51;10.83;;;10.13;;
11255;SDS011;5685;52.384;13.420;2022-09-09T16:37:53;9.90;;;9.40;;
11255;SDS011;5685;52.384;13.420;2022-09-09T16:40:58;10.80;;;10.20;;
11255;SDS011;5685;52.384;13.420;2022-09-09T16:44:03;11.10;;;10.50;;
11255;SDS011;5685;52.384;13.420;2022-09-09T16:47:07;11.50;;;10.80;;
11255;SDS011;5685;52.384;13.420;2022-09-09T16:50:09;11.17;;;10.57;;
11255;SDS011;5685;52.384;13.420;2022-09-09T16:53:11;10.87;;;10.30;;
11255;SDS011;5685;52.384;13.420;2022-09-09T16:56:16;10.73;;;10.13;;
11255;SDS011;5685;52.384;13.420;2022-09-09T16:59:21;11.23;;;10.73;;
11255;SDS011;5685;52.384;13.420;2022-09-09T17:02:23;11.17;;;10.50;;
11255;SDS011;5685;52.384;13.420;2022-09-09T17:05:26;11.27;;;10.60;;
11255;SDS011;5685;52.384;13.420;2022-09-09T17:08:29;11.00;;;10.40;;
11255;SDS011;5685;52.384;13.420;2022-09-09T17:11:31;10.70;;;10.00;;
11255;SDS011;5685;52.384;13.420;2022-09-09T17:14:35;10.83;;;10.33;;
11255;SDS011;5685;52.384;13.420;2022-09-09T17:17:38;10.90;;;10.30;;
11255;SDS011;5685;52.384;13.420;2022-09-09T17:20:43;11.73;;;11.10;;
11255;SDS011;5685;52.384;13.420;2022-09-09T17:23:46;11.00;;;10.30;;
11255;SDS011;5685;52.384;13.420;2022-09-09T17:26:48;11.37;;;10.57;;
11255;SDS011;5685;52.384;13.420;2022-09-09T17:29:52;10.80;;;10.30;;
11255;SDS011;5685;52.384;13.420;2022-09-09T17:32:54;11.17;;;10.57;;
11255;SDS011;5685;52.384;13.420;2022-09-09T17:35:57;11.00;;;10.33;;
11255;SDS011;5685;52.384;13.420;2022-09-09T17:39:00;11.40;;;10.80;;
11255;SDS011;5685;52.384;13.420;2022-09-09T17:42:04;10.83;;;10.33;;
11255;SDS011;5685;52.384;13.420;2022-09-09T17:45:09;11.00;;;10.40;;
11255;SDS011;5685;52.384;13.420;2022-09-09T17:48:11;10.73;;;10.13;;
11255;SDS011;5685;52.384;13.420;2022-09-09T17:51:14;10.90;;;10.30;;
11255;SDS011;5685;52.384;13.420;2022-09-09T17:54:20;10.57;;;9.97;;
11255;SDS011;5685;52.384;13.420;2022-09-09T17:57:23;10.80;;;10.30;;
11255;SDS011;5685;52.384;13.420;2022-09-09T18:00:27;10.80;;;10.30;;
11255;SDS011;5685;52.384;13.420;2022-09-09T18:03:30;11.07;;;10.20;;
11255;SDS011;5685;52.384;13.420;2022-09-09T18:06:35;11.00;;;10.40;;
11255;SDS011;5685;52.384;13.420;2022-09-09T18:09:39;10.83;;;10.33;;
11255;SDS011;5685;52.384;13.420;2022-09-09T18:12:41;10.90;;;10.37;;
11255;SDS011;5685;52.384;13.420;2022-09-09T18:15:45;10.07;;;9.57;;
11255;SDS011;5685;52.384;13.420;2022-09-09T18:18:48;10.17;;;9.67;;
11255;SDS011;5685;52.384;13.420;2022-09-09T18:21:51;11.00;;;10.40;;